Time;durP1;ratioP1;P1;durP2;ratioP2;P2;SDS_P1;SDS_P2;PMS_P1;PMS_P2;Temp;Humidity;BMP_temperature;BMP_pressure;BME280_temperature;BME280_humidity;BME280_pressure;Samples;Min_cycle;Max_cycle;Signal;HPM_P1;HPM_P2
2022/04/01 00:21:29;;;;;;;13.00;11.52;;;;;;;;;;4635560;29;20191;-55
2022/04/01 00:23:55;;;;;;;14.45;11.15;;;;;;;;;;4095482;34;20121;-56
2022/04/01 00:26:21;;;;;;;12.27;10.98;;;;;;;;;;4095324;35;20227;-55
2022/04/01 00:28:47;;;;;;;13.35;11.95;;;;;;;;;;4094038;35;20112;-59
2022/04/01 00:31:14;;;;;;;13.45;10.77;;;;;;;;;;4094995;35;20097;-59
2022/04/01 00:33:40;;;;;;;14.10;11.60;;;;;;;;;;4092997;35;20116;-58
2022/04/01 00:36:06;;;;;;;12.98;11.05;;;;;;;;;;4097425;34;20112;-58
2022/04/01 00:38:32;;;;;;;13.52;11.02;;;;;;;;;;4097558;35;20140;-60
2022/04/01 00:40:59;;;;;;;15.27;11.10;;;;;;;;;;4087980;35;20115;-60
2022/04/01 00:43:27;;;;;;;13.73;12.02;;;;;;;;;;4092087;35;20116;-62
2022/04/01 00:45:53;;;;;;;15.55;11.48;;;;;;;;;;4097235;35;20552;-62
2022/04/01 00:48:19;;;;;;;14.55;11.90;;;;;;;;;;4097047;34;20112;-62
2022/04/01 00:50:46;;;;;;;14.40;11.77;;;;;;;;;;4097400;35;20101;-62
2022/04/01 00:53:12;;;;;;;15.30;11.05;;;;;;;;;;4096417;34;20116;-61
2022/04/01 00:55:38;;;;;;;14.45;11.88;;;;;;;;;;4095767;35;20116;-61
2022/04/01 00:58:07;;;;;;;15.27;12.52;;;;;;;;;;4093358;34;20117;-61
2022/04/01 01:00:33;;;;;;;12.57;11.27;;;;;;;;;;4097351;35;20116;-62
2022/04/01 01:02:59;;;;;;;13.77;12.00;;;;;;;;;;4096450;35;20197;-59
2022/04/01 01:05:25;;;;;;;13.05;11.70;;;;;;;;;;4096848;35;20481;-61
2022/04/01 01:07:51;;;;;;;13.98;11.90;;;;;;;;;;4096993;34;20130;-59
2022/04/01 01:10:18;;;;;;;15.70;12.45;;;;;;;;;;4097074;35;20148;-57
2022/04/01 01:12:45;;;;;;;17.37;12.05;;;;;;;;;;4096907;35;20593;-60
2022/04/01 01:15:14;;;;;;;12.75;11.43;;;;;;;;;;4096848;35;20125;-60
2022/04/01 01:17:41;;;;;;;15.63;12.05;;;;;;;;;;4097010;34;20449;-58
2022/04/01 01:20:12;;;;;;;15.48;12.15;;;;;;;;;;4085150;35;20184;-58
2022/04/01 01:22:42;;;;;;;15.02;12.50;;;;;;;;;;4096911;34;20199;-60
2022/04/01 01:25:10;;;;;;;13.95;12.05;;;;;;;;;;4089204;35;20131;-60
2022/04/01 01:27:36;;;;;;;13.85;11.48;;;;;;;;;;4087238;35;20112;-60
2022/04/01 01:30:04;;;;;;;16.35;12.13;;;;;;;;;;4097108;35;20218;-60
2022/04/01 01:32:32;;;;;;;14.85;11.88;;;;;;;;;;4096886;34;20124;-57
2022/04/01 01:34:59;;;;;;;14.52;11.40;;;;;;;;;;4096815;35;20112;-60
2022/04/01 01:37:25;;;;;;;15.10;12.70;;;;;;;;;;4096558;34;20121;-60
2022/04/01 01:39:51;;;;;;;15.30;11.95;;;;;;;;;;4097172;35;20120;-61
2022/04/01 01:42:18;;;;;;;16.52;13.02;;;;;;;;;;4096634;34;20164;-60
2022/04/01 01:44:45;;;;;;;16.98;12.10;;;;;;;;;;4096865;35;20445;-60
2022/04/01 01:47:12;;;;;;;16.37;12.63;;;;;;;;;;4096899;34;20119;-61
2022/04/01 01:54:42;;;;;;;16.55;13.13;;;;;;;;;;4096892;35;20119;-60
2022/04/01 01:55:09;;;;;;;17.05;11.98;;;;;;;;;;4096643;35;20128;-60
2022/04/01 01:57:35;;;;;;;16.15;11.82;;;;;;;;;;4096644;35;20104;-60
2022/04/01 02:00:10;;;;;;;14.02;12.15;;;;;;;;;;4084955;35;20129;-60
2022/04/01 02:02:38;;;;;;;14.95;12.27;;;;;;;;;;4086757;35;20549;-59
2022/04/01 02:05:07;;;;;;;16.50;11.85;;;;;;;;;;4096657;35;20111;-60
2022/04/01 02:07:33;;;;;;;14.80;12.27;;;;;;;;;;4096622;35;20210;-60
2022/04/01 02:09:59;;;;;;;17.02;12.48;;;;;;;;;;4096457;35;20581;-60
2022/04/01 02:12:26;;;;;;;17.70;12.50;;;;;;;;;;4096618;34;20135;-59
2022/04/01 02:14:52;;;;;;;16.60;12.55;;;;;;;;;;4096484;35;20096;-60
2022/04/01 02:17:18;;;;;;;15.77;11.57;;;;;;;;;;4096592;34;20104;-58
2022/04/01 02:19:44;;;;;;;15.00;11.95;;;;;;;;;;4096683;35;20210;-58
2022/04/01 02:22:10;;;;;;;12.63;11.32;;;;;;;;;;4096113;35;20512;-58
2022/04/01 02:24:36;;;;;;;19.33;12.50;;;;;;;;;;4092514;35;20113;-59
2022/04/01 02:27:03;;;;;;;17.10;12.75;;;;;;;;;;4083447;35;20530;-58
2022/04/01 02:29:29;;;;;;;14.87;11.68;;;;;;;;;;4096630;35;20219;-59
2022/04/01 02:31:55;;;;;;;16.00;11.50;;;;;;;;;;4096753;34;20113;-59
2022/04/01 02:34:26;;;;;;;15.13;11.55;;;;;;;;;;4096096;35;20191;-59
2022/04/01 02:36:58;;;;;;;14.52;12.07;;;;;;;;;;4096831;35;20119;-59
2022/04/01 02:39:24;;;;;;;17.77;12.02;;;;;;;;;;4096639;35;20135;-59
2022/04/01 02:41:50;;;;;;;14.68;11.65;;;;;;;;;;4096338;34;20235;-59
2022/04/01 02:44:16;;;;;;;13.62;11.40;;;;;;;;;;4096258;35;20116;-59
2022/04/01 02:46:44;;;;;;;13.32;11.65;;;;;;;;;;4096712;34;20116;-58
2022/04/01 02:49:15;;;;;;;14.13;12.05;;;;;;;;;;4096131;35;20530;-59
2022/04/01 02:51:42;;;;;;;15.13;12.43;;;;;;;;;;4096167;34;20115;-58
2022/04/01 02:54:09;;;;;;;14.20;12.02;;;;;;;;;;4095316;35;20101;-59
2022/04/01 02:56:36;;;;;;;14.35;11.45;;;;;;;;;;4096404;34;20214;-59
2022/04/01 02:59:06;;;;;;;13.30;11.55;;;;;;;;;;4095844;35;20117;-59
2022/04/01 03:01:35;;;;;;;17.60;12.18;;;;;;;;;;4096438;35;20223;-59
2022/04/01 03:04:02;;;;;;;16.40;11.30;;;;;;;;;;4095865;35;20104;-59
2022/04/01 03:06:28;;;;;;;13.13;11.73;;;;;;;;;;4096091;35;20237;-59
2022/04/01 03:08:54;;;;;;;16.08;12.23;;;;;;;;;;4096023;35;20212;-59
2022/04/01 03:11:20;;;;;;;15.05;11.43;;;;;;;;;;4096509;35;20316;-59
2022/04/01 03:13:46;;;;;;;15.85;10.93;;;;;;;;;;4095655;35;20561;-58
2022/04/01 03:16:12;;;;;;;15.20;11.18;;;;;;;;;;4095790;35;20194;-58
2022/04/01 03:18:40;;;;;;;16.00;11.82;;;;;;;;;;4096118;35;20187;-59
2022/04/01 03:21:10;;;;;;;15.43;12.30;;;;;;;;;;4096393;35;20119;-58
2022/04/01 03:23:37;;;;;;;16.67;12.10;;;;;;;;;;4095784;35;20121;-59
2022/04/01 03:26:03;;;;;;;15.43;11.85;;;;;;;;;;4085047;35;20510;-58
2022/04/01 03:28:30;;;;;;;18.35;13.10;;;;;;;;;;4092735;35;20113;-59
2022/04/01 03:30:56;;;;;;;15.23;11.73;;;;;;;;;;4098095;35;20104;-58
2022/04/01 03:33:22;;;;;;;15.50;11.80;;;;;;;;;;4097916;35;20524;-58
2022/04/01 03:35:48;;;;;;;18.92;11.95;;;;;;;;;;4097759;35;20489;-58
2022/04/01 03:38:15;;;;;;;12.65;11.18;;;;;;;;;;4097878;34;20108;-59
2022/04/01 03:40:41;;;;;;;15.65;12.70;;;;;;;;;;4098206;35;20128;-59
2022/04/01 03:43:07;;;;;;;14.80;12.25;;;;;;;;;;4097990;34;20199;-60
2022/04/01 03:45:35;;;;;;;15.50;12.57;;;;;;;;;;4097785;35;20117;-63
2022/04/01 03:48:07;;;;;;;14.48;12.13;;;;;;;;;;4097428;35;20180;-61
2022/04/01 03:50:34;;;;;;;13.88;11.60;;;;;;;;;;4085665;35;20167;-60
2022/04/01 03:53:09;;;;;;;20.10;11.20;;;;;;;;;;4096771;34;20175;-61
2022/04/01 03:55:37;;;;;;;13.50;11.98;;;;;;;;;;4097805;35;20120;-61
2022/04/01 03:58:08;;;;;;;18.42;11.80;;;;;;;;;;4097572;34;20526;-61
2022/04/01 04:00:35;;;;;;;15.95;12.15;;;;;;;;;;4096372;35;20191;-60
2022/04/01 04:03:07;;;;;;;15.68;11.38;;;;;;;;;;4097622;34;20104;-60
2022/04/01 04:05:37;;;;;;;19.27;11.68;;;;;;;;;;4097747;35;20112;-61
2022/04/01 04:08:04;;;;;;;18.30;12.10;;;;;;;;;;4097776;34;20143;-60
2022/04/01 04:10:32;;;;;;;17.02;13.18;;;;;;;;;;4097573;35;20136;-61
2022/04/01 04:12:59;;;;;;;17.85;11.52;;;;;;;;;;4095961;34;20105;-61
2022/04/01 04:15:29;;;;;;;17.73;12.68;;;;;;;;;;4097281;35;20147;-62
2022/04/01 04:17:59;;;;;;;19.25;12.32;;;;;;;;;;4085294;35;20111;-61
2022/04/01 04:20:35;;;;;;;15.45;12.37;;;;;;;;;;4097130;35;20125;-59
2022/04/01 04:23:26;;;;;;;14.38;11.73;;;;;;;;;;4095927;34;20108;-58
2022/04/01 04:26:05;;;;;;;20.58;12.32;;;;;;;;;;4074866;35;20129;-56
2022/04/01 04:28:37;;;;;;;14.90;11.80;;;;;;;;;;4092460;35;20602;-56
2022/04/01 04:31:07;;;;;;;17.00;12.73;;;;;;;;;;4097627;34;20111;-60
2022/04/01 04:33:33;;;;;;;17.27;12.00;;;;;;;;;;4097341;35;20517;-57
2022/04/01 04:36:04;;;;;;;18.87;12.30;;;;;;;;;;4095768;34;20124;-57
2022/04/01 04:38:40;;;;;;;16.23;12.13;;;;;;;;;;4097340;35;21097;-57
2022/04/01 04:41:11;;;;;;;20.10;11.95;;;;;;;;;;4097398;34;20100;-56
2022/04/01 04:43:46;;;;;;;14.10;11.95;;;;;;;;;;4097430;35;20124;-57
2022/04/01 04:46:12;;;;;;;;;;;;;;;;;;4097855;35;20112;-57
2022/04/01 04:48:41;;;;;;;17.58;12.63;;;;;;;;;;4095899;35;20066;-57
2022/04/01 04:51:07;;;;;;;19.62;13.82;;;;;;;;;;4097188;34;20115;-57
2022/04/01 04:53:34;;;;;;;16.52;12.45;;;;;;;;;;4096296;35;20115;-59
2022/04/01 04:56:04;;;;;;;20.95;14.15;;;;;;;;;;4097272;34;20480;-59
2022/04/01 04:58:34;;;;;;;16.70;12.88;;;;;;;;;;4084924;35;20128;-57
2022/04/01 05:01:06;;;;;;;17.05;12.98;;;;;;;;;;4097581;34;20194;-56
2022/04/01 05:03:44;;;;;;;18.65;12.75;;;;;;;;;;4097417;35;20509;-56
2022/04/01 05:06:11;;;;;;;21.60;12.77;;;;;;;;;;4097061;35;20186;-57
2022/04/01 05:08:52;;;;;;;19.17;13.10;;;;;;;;;;4095666;35;20148;-56
2022/04/01 05:11:23;;;;;;;15.63;12.63;;;;;;;;;;4097232;34;20581;-56
2022/04/01 05:14:01;;;;;;;17.67;12.93;;;;;;;;;;4096845;35;20124;-56
2022/04/01 05:16:46;;;;;;;17.05;13.75;;;;;;;;;;4097004;34;20585;-56
2022/04/01 05:19:13;;;;;;;19.20;12.73;;;;;;;;;;4095444;35;20111;-58
2022/04/01 05:22:05;;;;;;;19.33;13.07;;;;;;;;;;4096906;34;20152;-58
2022/04/01 05:24:44;;;;;;;23.55;13.05;;;;;;;;;;4088866;35;20120;-58
2022/04/01 05:27:21;;;;;;;16.17;11.43;;;;;;;;;;4084849;35;20125;-56
2022/04/01 05:30:01;;;;;;;17.33;12.18;;;;;;;;;;4097069;35;20125;-59
2022/04/01 05:32:31;;;;;;;19.35;12.43;;;;;;;;;;4096845;34;20242;-55
2022/04/01 05:35:00;;;;;;;17.65;12.88;;;;;;;;;;4096697;35;20108;-58
2022/04/01 05:37:28;;;;;;;21.70;13.10;;;;;;;;;;4097039;35;20108;-60
2022/04/01 05:39:55;;;;;;;15.43;12.48;;;;;;;;;;4096933;35;20201;-58
2022/04/01 05:42:22;;;;;;;16.80;12.57;;;;;;;;;;4096960;34;20128;-58
2022/04/01 05:44:49;;;;;;;18.52;13.48;;;;;;;;;;4096715;35;20097;-58
2022/04/01 05:47:16;;;;;;;21.80;13.52;;;;;;;;;;4097156;34;20206;-59
2022/04/01 05:49:44;;;;;;;15.73;12.37;;;;;;;;;;4096626;35;20113;-59
2022/04/01 05:52:12;;;;;;;17.73;12.52;;;;;;;;;;4096141;34;20107;-58
2022/04/01 05:54:42;;;;;;;18.73;13.10;;;;;;;;;;4096304;35;20123;-58
2022/04/01 05:57:10;;;;;;;19.73;11.85;;;;;;;;;;4096446;35;20202;-58
2022/04/01 05:59:36;;;;;;;18.10;11.75;;;;;;;;;;4096781;35;20466;-56
2022/04/01 06:02:24;;;;;;;17.33;12.40;;;;;;;;;;4096707;34;20214;-58
2022/04/01 06:05:13;;;;;;;16.50;11.85;;;;;;;;;;4096862;35;20097;-59
2022/04/01 06:08:20;;;;;;;27.90;11.85;;;;;;;;;;4084591;35;20446;-58
2022/04/01 06:10:52;;;;;;;18.62;11.75;;;;;;;;;;4076237;35;20207;-57
2022/04/01 06:13:55;;;;;;;18.98;11.75;;;;;;;;;;4096738;35;20207;-58
2022/04/01 06:16:37;;;;;;;18.90;11.63;;;;;;;;;;4096584;35;20528;-58
2022/04/01 06:19:06;;;;;;;19.50;12.10;;;;;;;;;;4096555;35;20508;-58
2022/04/01 06:21:47;;;;;;;23.17;12.73;;;;;;;;;;4096428;34;20116;-58
2022/04/01 06:24:30;;;;;;;22.17;12.70;;;;;;;;;;4094358;35;20136;-58
2022/04/01 06:27:03;;;;;;;15.98;12.20;;;;;;;;;;4083527;35;20625;-58
2022/04/01 06:29:38;;;;;;;17.10;12.00;;;;;;;;;;4083670;35;20482;-58
2022/04/01 06:32:06;;;;;;;17.77;11.90;;;;;;;;;;4083470;35;20207;-57
2022/04/01 06:34:37;;;;;;;17.70;11.98;;;;;;;;;;4096501;35;20108;-59
2022/04/01 06:37:05;;;;;;;15.30;12.30;;;;;;;;;;4096333;34;20541;-61
2022/04/01 06:39:45;;;;;;;13.48;11.68;;;;;;;;;;4096464;35;20116;-61
2022/04/01 06:42:19;;;;;;;16.83;12.27;;;;;;;;;;4096259;35;20112;-58
2022/04/01 06:44:46;;;;;;;16.97;11.17;;;;;;;;;;4079985;35;20117;-58
2022/04/01 06:47:12;;;;;;;15.88;11.02;;;;;;;;;;4083168;35;20109;-58
2022/04/01 06:49:38;;;;;;;18.27;10.73;;;;;;;;;;4083505;35;20109;-58
2022/04/01 06:52:05;;;;;;;13.38;10.63;;;;;;;;;;4083439;35;20210;-58
2022/04/01 06:54:31;;;;;;;15.80;11.40;;;;;;;;;;4082286;35;20100;-60
2022/04/01 06:56:57;;;;;;;19.75;12.88;;;;;;;;;;4083425;35;20184;-58
2022/04/01 06:59:23;;;;;;;17.70;11.07;;;;;;;;;;4083363;35;20089;-58
2022/04/01 07:01:49;;;;;;;19.52;11.43;;;;;;;;;;4082714;35;20184;-57
2022/04/01 07:04:15;;;;;;;21.12;11.45;;;;;;;;;;4083526;35;20112;-58
2022/04/01 07:06:41;;;;;;;17.15;11.85;;;;;;;;;;4083314;35;20221;-58
2022/04/01 07:09:07;;;;;;;18.08;13.40;;;;;;;;;;4083228;35;20113;-58
2022/04/01 07:11:34;;;;;;;15.95;11.27;;;;;;;;;;4083301;35;20219;-58
2022/04/01 07:14:00;;;;;;;15.43;10.95;;;;;;;;;;4083113;35;20097;-58
2022/04/01 07:16:26;;;;;;;14.80;10.55;;;;;;;;;;4081911;35;20128;-58
2022/04/01 07:18:52;;;;;;;21.05;11.70;;;;;;;;;;4083087;35;20169;-58
2022/04/01 07:21:18;;;;;;;15.15;11.20;;;;;;;;;;4083041;35;20165;-59
2022/04/01 07:23:45;;;;;;;16.33;11.90;;;;;;;;;;4083123;35;20101;-59
2022/04/01 07:26:11;;;;;;;21.08;11.32;;;;;;;;;;4083023;35;20100;-58
2022/04/01 07:28:37;;;;;;;16.25;11.35;;;;;;;;;;4083288;35;20551;-58
2022/04/01 07:32:29;;;;;;;14.27;10.30;;;;;;;;;;4082962;35;20105;-59
2022/04/01 07:33:48;;;;;;;;;;;;;;;;;;4083413;35;20121;-58
2022/04/01 07:36:14;;;;;;;16.92;11.77;;;;;;;;;;4082956;35;20094;-60
2022/04/01 07:38:40;;;;;;;18.23;12.00;;;;;;;;;;4082991;35;20564;-58
2022/04/01 07:41:06;;;;;;;13.77;10.82;;;;;;;;;;4082924;35;20125;-59
2022/04/01 07:43:32;;;;;;;13.40;10.07;;;;;;;;;;4082984;35;20124;-57
2022/04/01 07:45:58;;;;;;;16.52;10.60;;;;;;;;;;4082760;35;20116;-58
2022/04/01 07:48:24;;;;;;;13.18;9.88;;;;;;;;;;4082890;35;20196;-58
2022/04/01 07:50:50;;;;;;;20.90;11.27;;;;;;;;;;4081417;35;20121;-58
2022/04/01 07:53:17;;;;;;;14.70;11.05;;;;;;;;;;4083036;35;20534;-58
2022/04/01 07:55:48;;;;;;;15.95;10.70;;;;;;;;;;4082715;35;20519;-58
2022/04/01 07:58:15;;;;;;;12.68;9.13;;;;;;;;;;4082756;35;20112;-58
2022/04/01 08:00:42;;;;;;;15.65;10.77;;;;;;;;;;4082795;35;20521;-59
2022/04/01 08:03:08;;;;;;;12.60;10.07;;;;;;;;;;4082678;35;20136;-58
2022/04/01 08:05:34;;;;;;;21.87;10.63;;;;;;;;;;4082670;35;20580;-64
2022/04/01 08:08:00;;;;;;;19.35;10.45;;;;;;;;;;4082598;35;20128;-60
2022/04/01 08:10:26;;;;;;;12.02;9.68;;;;;;;;;;4082593;35;20565;-65
2022/04/01 08:12:52;;;;;;;13.48;9.90;;;;;;;;;;4084291;35;20116;-62
2022/04/01 08:15:19;;;;;;;13.48;9.90;;;;;;;;;;4084702;35;20333;-62
2022/04/01 08:17:45;;;;;;;12.73;9.07;;;;;;;;;;4084628;35;20634;-59
2022/04/01 08:20:12;;;;;;;20.80;10.98;;;;;;;;;;4084594;35;20132;-60
2022/04/01 08:22:39;;;;;;;12.98;9.88;;;;;;;;;;4084642;35;20222;-62
2022/04/01 08:25:06;;;;;;;16.20;9.32;;;;;;;;;;4084563;35;20094;-58
2022/04/01 08:27:32;;;;;;;12.60;10.60;;;;;;;;;;4084366;35;20234;-59
2022/04/01 08:29:59;;;;;;;13.77;9.45;;;;;;;;;;4084778;35;20526;-61
2022/04/01 08:32:26;;;;;;;12.07;10.10;;;;;;;;;;4084356;35;20097;-60
2022/04/01 08:34:52;;;;;;;16.65;10.80;;;;;;;;;;4084501;35;20123;-61
2022/04/01 08:37:18;;;;;;;19.58;10.15;;;;;;;;;;4084674;35;20222;-61
2022/04/01 08:39:45;;;;;;;13.55;9.63;;;;;;;;;;4084498;35;20211;-61
2022/04/01 08:42:11;;;;;;;11.30;9.32;;;;;;;;;;4084543;35;20116;-61
2022/04/01 08:44:41;;;;;;;13.95;9.45;;;;;;;;;;4084532;35;20530;-60
2022/04/01 08:47:08;;;;;;;14.18;9.90;;;;;;;;;;4084257;35;20612;-61
2022/04/01 08:49:35;;;;;;;12.05;8.88;;;;;;;;;;4084433;35;20125;-64
2022/04/01 08:52:02;;;;;;;11.85;8.95;;;;;;;;;;4084697;35;20121;-59
2022/04/01 08:54:32;;;;;;;16.45;10.23;;;;;;;;;;4082950;35;20112;-61
2022/04/01 08:56:58;;;;;;;18.08;9.40;;;;;;;;;;4084449;35;20192;-60
2022/04/01 08:59:31;;;;;;;19.42;10.32;;;;;;;;;;4084279;35;20132;-62
2022/04/01 09:02:08;;;;;;;16.75;9.48;;;;;;;;;;4084351;35;20129;-59
2022/04/01 09:04:34;;;;;;;13.35;9.10;;;;;;;;;;4084336;35;20541;-60
2022/04/01 09:07:11;;;;;;;19.10;10.45;;;;;;;;;;4084041;35;20218;-62
2022/04/01 09:09:37;;;;;;;17.90;10.02;;;;;;;;;;4084304;35;20113;-63
2022/04/01 09:12:09;;;;;;;14.82;10.20;;;;;;;;;;4083021;35;20530;-63
2022/04/01 09:14:35;;;;;;;12.85;9.20;;;;;;;;;;4084466;35;20265;-63
2022/04/01 09:17:02;;;;;;;15.13;9.88;;;;;;;;;;4084186;35;20199;-63
2022/04/01 09:19:34;;;;;;;18.67;10.38;;;;;;;;;;4084234;35;20117;-62
2022/04/01 09:22:15;;;;;;;18.23;11.88;;;;;;;;;;4084016;35;20115;-62
2022/04/01 09:25:04;;;;;;;10.75;8.98;;;;;;;;;;4083362;35;20136;-63
2022/04/01 09:27:40;;;;;;;13.93;9.75;;;;;;;;;;4084124;35;20197;-63
2022/04/01 09:30:09;;;;;;;22.55;10.43;;;;;;;;;;4084318;35;20100;-63
2022/04/01 09:32:46;;;;;;;18.08;9.52;;;;;;;;;;4084162;35;20506;-60
2022/04/01 09:35:13;;;;;;;15.35;10.32;;;;;;;;;;4084185;35;20176;-62
2022/04/01 09:37:40;;;;;;;16.33;10.20;;;;;;;;;;4084235;35;20124;-61
2022/04/01 09:40:06;;;;;;;17.67;9.90;;;;;;;;;;4084233;35;20561;-67
2022/04/01 09:42:33;;;;;;;14.10;8.77;;;;;;;;;;4083980;35;20128;-63
2022/04/01 09:45:00;;;;;;;13.60;9.77;;;;;;;;;;4084037;35;20124;-62
2022/04/01 09:47:26;;;;;;;17.77;9.45;;;;;;;;;;4084069;35;20184;-63
2022/04/01 09:49:54;;;;;;;25.65;14.23;;;;;;;;;;4084010;35;20111;-63
2022/04/01 09:52:22;;;;;;;14.05;9.73;;;;;;;;;;4082779;35;20102;-63
2022/04/01 09:54:50;;;;;;;22.73;14.93;;;;;;;;;;4083947;35;20105;-63
2022/04/01 09:57:18;;;;;;;16.80;12.57;;;;;;;;;;4072063;35;20136;-63
2022/04/01 09:59:45;;;;;;;15.25;10.02;;;;;;;;;;4071761;35;20124;-64
2022/04/01 10:02:11;;;;;;;17.95;9.57;;;;;;;;;;4082590;35;20453;-67
2022/04/01 10:04:37;;;;;;;22.58;10.00;;;;;;;;;;4083773;35;20222;-67
2022/04/01 10:07:04;;;;;;;13.93;9.23;;;;;;;;;;4084045;35;20136;-67
2022/04/01 10:09:31;;;;;;;14.77;9.38;;;;;;;;;;4082587;35;20097;-64
2022/04/01 10:12:02;;;;;;;10.25;6.60;;;;;;;;;;4083810;35;20565;-64
2022/04/01 10:14:28;;;;;;;14.15;7.07;;;;;;;;;;4082252;35;20506;-63
2022/04/01 10:16:55;;;;;;;11.30;6.85;;;;;;;;;;4082373;35;20107;-63
2022/04/01 10:19:29;;;;;;;16.70;7.80;;;;;;;;;;4082222;35;20120;-63
2022/04/01 10:21:56;;;;;;;14.18;8.20;;;;;;;;;;4080861;35;20291;-64
2022/04/01 10:24:33;;;;;;;16.98;9.27;;;;;;;;;;4083466;35;20128;-63
2022/04/01 10:27:14;;;;;;;6.60;5.22;;;;;;;;;;4082529;35;20097;-64
2022/04/01 10:29:42;;;;;;;8.68;4.07;;;;;;;;;;4082441;35;20116;-63
2022/04/01 10:32:31;;;;;;;6.12;4.30;;;;;;;;;;4083600;35;20109;-63
2022/04/01 10:35:01;;;;;;;10.80;6.93;;;;;;;;;;4081914;35;20560;-64
2022/04/01 10:37:30;;;;;;;8.15;4.22;;;;;;;;;;4083510;35;20101;-64
2022/04/01 10:40:00;;;;;;;8.45;5.97;;;;;;;;;;4083450;35;20100;-63
2022/04/01 10:42:35;;;;;;;6.95;4.53;;;;;;;;;;4083699;35;20113;-63
2022/04/01 10:45:08;;;;;;;9.77;7.10;;;;;;;;;;4083529;35;20088;-64
2022/04/01 10:53:59;;;;;;;16.23;8.27;;;;;;;;;;4083362;35;20450;-62
2022/04/01 10:56:27;;;;;;;11.25;8.05;;;;;;;;;;4083418;35;20705;-62
2022/04/01 10:59:08;;;;;;;10.50;6.97;;;;;;;;;;4083259;35;20108;-63
2022/04/01 11:01:37;;;;;;;8.93;2.97;;;;;;;;;;4083434;35;20227;-63
2022/04/01 11:04:25;;;;;;;2.53;2.33;;;;;;;;;;4083174;35;20503;-63
2022/04/01 11:07:06;;;;;;;4.57;2.92;;;;;;;;;;4083243;35;20105;-63
2022/04/01 11:09:32;;;;;;;3.95;1.65;;;;;;;;;;4081789;35;20205;-63
2022/04/01 11:14:57;;;;;;;1.40;1.30;;;;;;;;;;4083229;35;20105;-62
2022/04/01 11:17:24;;;;;;;13.60;4.12;;;;;;;;;;4082958;35;20212;-62
2022/04/01 11:20:09;;;;;;;10.32;6.60;;;;;;;;;;4083057;35;20119;-62
2022/04/01 11:22:37;;;;;;;4.78;3.10;;;;;;;;;;4083231;35;20111;-63
2022/04/01 11:25:04;;;;;;;7.50;4.90;;;;;;;;;;4082932;35;20573;-61
2022/04/01 11:27:30;;;;;;;11.93;7.57;;;;;;;;;;4082909;35;20117;-61
2022/04/01 11:30:26;;;;;;;11.85;6.80;;;;;;;;;;4082998;35;20105;-62
2022/04/01 11:33:03;;;;;;;14.82;6.00;;;;;;;;;;4082361;35;20117;-62
2022/04/01 11:35:31;;;;;;;8.95;5.35;;;;;;;;;;4083130;35;20105;-62
2022/04/01 11:37:58;;;;;;;6.78;4.70;;;;;;;;;;4082834;35;20470;-61
2022/04/01 11:40:26;;;;;;;1.52;1.42;;;;;;;;;;4082977;35;20314;-62
2022/04/01 11:43:03;;;;;;;1.55;1.45;;;;;;;;;;4082846;35;20139;-64
2022/04/01 11:45:33;;;;;;;1.45;1.10;;;;;;;;;;4082936;35;20120;-63
2022/04/01 11:48:29;;;;;;;2.08;1.67;;;;;;;;;;4084284;35;20113;-63
2022/04/01 11:50:59;;;;;;;15.25;8.98;;;;;;;;;;4084908;35;20490;-63
2022/04/01 11:53:37;;;;;;;10.65;7.80;;;;;;;;;;4083407;35;20203;-63
2022/04/01 11:56:08;;;;;;;19.75;8.48;;;;;;;;;;4084830;35;20198;-64
2022/04/01 11:58:40;;;;;;;13.25;9.80;;;;;;;;;;4084823;35;20105;-64
2022/04/01 12:01:06;;;;;;;17.17;10.60;;;;;;;;;;4083278;35;20128;-64
2022/04/01 12:03:32;;;;;;;22.08;10.80;;;;;;;;;;4084684;35;20466;-63
2022/04/01 12:08:41;;;;;;;18.15;10.35;;;;;;;;;;4084651;35;20219;-63
2022/04/01 12:08:46;;;;;;;16.95;11.00;;;;;;;;;;4084675;35;20109;-63
2022/04/01 12:11:12;;;;;;;12.52;8.75;;;;;;;;;;4084697;35;20112;-64
2022/04/01 12:13:49;;;;;;;14.98;10.48;;;;;;;;;;4084525;35;20113;-61
2022/04/01 12:16:15;;;;;;;13.45;9.23;;;;;;;;;;4084659;35;20145;-63
2022/04/01 12:18:46;;;;;;;18.15;10.02;;;;;;;;;;4084590;35;20108;-64
2022/04/01 12:21:17;;;;;;;16.23;10.07;;;;;;;;;;4084656;35;20097;-64
2022/04/01 12:23:48;;;;;;;13.00;10.65;;;;;;;;;;4084807;35;20132;-63
2022/04/01 12:26:19;;;;;;;13.65;9.95;;;;;;;;;;4084605;35;20527;-61
2022/04/01 12:28:48;;;;;;;19.12;9.90;;;;;;;;;;4083109;35;20477;-62
2022/04/01 12:31:19;;;;;;;16.35;10.20;;;;;;;;;;4084727;35;20121;-62
2022/04/01 12:33:56;;;;;;;15.65;10.80;;;;;;;;;;4084486;35;20226;-63
2022/04/01 12:36:38;;;;;;;16.70;10.32;;;;;;;;;;4072593;35;20132;-63
2022/04/01 12:39:07;;;;;;;17.15;11.02;;;;;;;;;;4084444;35;20149;-62
2022/04/01 12:41:34;;;;;;;17.48;10.90;;;;;;;;;;4084569;35;20440;-64
2022/04/01 12:44:13;;;;;;;30.95;21.10;;;;;;;;;;4084413;35;20101;-62
2022/04/01 12:46:39;;;;;;;25.67;20.02;;;;;;;;;;4084557;35;20127;-63
2022/04/01 12:49:16;;;;;;;29.40;17.50;;;;;;;;;;4082971;35;20113;-63
2022/04/01 12:51:51;;;;;;;20.77;16.10;;;;;;;;;;4083338;35;20196;-62
2022/04/01 12:54:41;;;;;;;26.10;16.23;;;;;;;;;;4084338;35;20192;-62
2022/04/01 12:57:11;;;;;;;21.62;15.02;;;;;;;;;;4084303;35;20123;-61
2022/04/01 12:59:42;;;;;;;20.23;14.13;;;;;;;;;;4083964;35;20526;-60
2022/04/01 13:02:12;;;;;;;25.45;15.45;;;;;;;;;;4083955;35;20718;-61
2022/04/01 13:04:47;;;;;;;24.40;17.52;;;;;;;;;;4084123;35;20222;-61
2022/04/01 13:07:15;;;;;;;26.73;15.00;;;;;;;;;;4089428;35;20188;-60
2022/04/01 13:09:59;;;;;;;17.10;13.95;;;;;;;;;;4097008;35;20127;-60
2022/04/01 13:12:28;;;;;;;14.90;11.43;;;;;;;;;;4097453;34;20229;-59
2022/04/01 13:14:56;;;;;;;18.40;12.05;;;;;;;;;;4095711;35;20188;-59
2022/04/01 13:17:22;;;;;;;18.00;11.40;;;;;;;;;;4096759;34;20546;-61
2022/04/01 13:19:48;;;;;;;17.92;11.90;;;;;;;;;;4097144;35;20153;-59
2022/04/01 13:22:14;;;;;;;16.98;10.50;;;;;;;;;;4097077;35;20117;-58
2022/04/01 13:24:46;;;;;;;14.48;9.50;;;;;;;;;;4093024;35;20204;-59
2022/04/01 13:27:18;;;;;;;14.25;10.13;;;;;;;;;;4089101;35;20105;-60
2022/04/01 13:29:44;;;;;;;14.95;11.05;;;;;;;;;;4084737;35;20136;-59
2022/04/01 13:32:12;;;;;;;16.05;11.57;;;;;;;;;;4097027;34;20202;-57
2022/04/01 13:34:39;;;;;;;16.12;10.90;;;;;;;;;;4097173;35;20116;-60
2022/04/01 13:37:05;;;;;;;15.43;11.35;;;;;;;;;;4096784;34;20266;-59
2022/04/01 13:39:32;;;;;;;16.00;11.63;;;;;;;;;;4096886;35;20101;-60
2022/04/01 13:41:59;;;;;;;20.00;12.07;;;;;;;;;;4073746;35;20117;-60
2022/04/01 13:44:28;;;;;;;15.25;10.85;;;;;;;;;;4097110;35;20187;-59
2022/04/01 13:46:54;;;;;;;14.98;11.45;;;;;;;;;;4095388;34;20128;-59
2022/04/01 13:49:21;;;;;;;13.60;10.57;;;;;;;;;;4096709;35;20120;-59
2022/04/01 13:51:48;;;;;;;17.27;11.73;;;;;;;;;;4096221;34;20127;-59
2022/04/01 13:54:14;;;;;;;20.17;13.88;;;;;;;;;;4096373;35;20127;-58
2022/04/01 13:56:40;;;;;;;17.17;12.98;;;;;;;;;;4096697;34;20528;-59
2022/04/01 13:59:06;;;;;;;19.95;12.40;;;;;;;;;;4096614;35;20108;-61
2022/04/01 14:01:34;;;;;;;19.80;13.50;;;;;;;;;;4096703;34;20466;-62
2022/04/01 14:04:01;;;;;;;18.80;13.27;;;;;;;;;;4096715;35;20130;-61
2022/04/01 14:06:28;;;;;;;22.08;15.80;;;;;;;;;;4096722;34;20105;-61
2022/04/01 14:08:54;;;;;;;20.48;13.68;;;;;;;;;;4096496;35;20112;-61
2022/04/01 14:11:20;;;;;;;17.25;11.50;;;;;;;;;;4096915;35;20132;-60
2022/04/01 14:13:47;;;;;;;15.27;11.35;;;;;;;;;;4096760;35;20127;-59
2022/04/01 14:16:13;;;;;;;18.08;10.70;;;;;;;;;;4096713;35;20116;-60
2022/04/01 14:18:39;;;;;;;16.10;11.05;;;;;;;;;;4096805;35;20217;-59
2022/04/01 14:21:06;;;;;;;15.90;10.18;;;;;;;;;;4096809;34;20120;-60
2022/04/01 14:23:34;;;;;;;17.70;10.15;;;;;;;;;;4096684;35;20123;-60
2022/04/01 14:26:08;;;;;;;16.90;10.80;;;;;;;;;;4085337;35;20099;-60
2022/04/01 14:28:37;;;;;;;14.43;10.68;;;;;;;;;;4083888;35;20100;-60
2022/04/01 14:31:04;;;;;;;14.77;9.77;;;;;;;;;;4071507;35;20123;-61
2022/04/01 14:33:31;;;;;;;16.65;9.95;;;;;;;;;;4083533;35;20470;-60
2022/04/01 14:35:58;;;;;;;14.00;10.50;;;;;;;;;;4083540;35;20507;-62
2022/04/01 14:38:24;;;;;;;13.68;10.40;;;;;;;;;;4081554;35;20140;-62
2022/04/01 14:40:52;;;;;;;16.98;11.10;;;;;;;;;;4080144;35;20131;-62
2022/04/01 14:43:18;;;;;;;17.42;11.77;;;;;;;;;;4081577;35;20144;-61
2022/04/01 14:45:48;;;;;;;16.55;10.10;;;;;;;;;;4082032;35;20116;-61
2022/04/01 14:48:14;;;;;;;15.13;9.68;;;;;;;;;;4081585;35;20283;-62
2022/04/01 14:50:41;;;;;;;11.65;9.10;;;;;;;;;;4081394;35;20491;-62
2022/04/01 14:53:09;;;;;;;19.40;10.10;;;;;;;;;;4079997;35;20608;-60
2022/04/01 14:55:35;;;;;;;14.30;9.07;;;;;;;;;;4083294;35;20450;-60
2022/04/01 14:58:02;;;;;;;14.15;8.02;;;;;;;;;;4081908;35;20188;-59
2022/04/01 15:00:28;;;;;;;11.90;8.93;;;;;;;;;;4083507;35;20136;-60
2022/04/01 15:02:55;;;;;;;15.43;8.45;;;;;;;;;;4083410;35;20203;-59
2022/04/01 15:05:21;;;;;;;13.82;8.20;;;;;;;;;;4082606;35;20545;-58
2022/04/01 15:07:49;;;;;;;12.15;8.18;;;;;;;;;;4079130;35;20133;-59